Main page
METAR-TAF:

METAR-TAF

Airports :

Bologna Guglielmo Marconi Airport

Bologna, Italy

latitude: 44-32N, longitude: 011-18E, elevation: 36 m

Current weather observation

The report was made 22 minutes ago, at 07:50 UTC
Wind 4 kt from the Southwest, varying between South and West
Temperature 26°C
Humidity 51%
Pressure 1015 hPa
Visibility 10 km or more
no clouds below 1500 m and no cumulonimbus

METAR: LIPE 220750Z 22004KT 190V260 CAVOK 26/15 Q1015

Time: 10:12 (08:12 UTC)

Forecast

The report was made 3 hours and 12 minutes ago, at 05:00 UTC
Forecast valid from 22 at 06 UTC to 23 at 06 UTC
Wind 5 kt from variable directions
Visibility 10 km or more
no clouds below 1500 m and no cumulonimbus

TAF: LIPE 220500Z 2206/2306 VRB05KT CAVOK

Weather observations and forecasts of more than 4000 airports (METAR and TAF reports).

The available stations are represented by yellow and red dots on the map.

Hover mouse over dot to see the name of the station.

Then click to see weather observations and forecasts.

To change the map : click on the green buttons with a black cross to zoom in, on the green button with a dash to zoom out, or on the green arrows for adjacent maps.


METAR-TAF: